createdAt,value
2022-09-24T00:03:45.799Z,100671.00
2022-09-24T00:09:48.788Z,100672.00
2022-09-24T00:15:51.915Z,100674.00
2022-09-24T00:21:54.174Z,100676.00
2022-09-24T00:27:56.325Z,100676.00
2022-09-24T00:33:59.009Z,100671.00
2022-09-24T00:40:01.493Z,100667.00
2022-09-24T00:46:20.991Z,100668.00
2022-09-24T00:52:23.442Z,100668.00
2022-09-24T00:58:27.105Z,100673.00
2022-09-24T01:04:29.511Z,100673.00
2022-09-24T01:11:09.962Z,100676.00
2022-09-24T01:17:30.897Z,100676.00
2022-09-24T01:23:54.607Z,100673.00
2022-09-24T01:30:04.883Z,100680.00
2022-09-24T01:36:09.824Z,100669.00
2022-09-24T01:42:14.125Z,100666.00
2022-09-24T01:48:21.389Z,100671.00
2022-09-24T01:54:28.769Z,100671.00
2022-09-24T02:00:31.125Z,100679.00
2022-09-24T02:07:02.724Z,100675.00
2022-09-24T02:13:10.891Z,100676.00
2022-09-24T02:19:17.783Z,100681.00
2022-09-24T02:25:24.919Z,100682.00
2022-09-24T02:31:41.107Z,100685.00
2022-09-24T02:37:44.844Z,100680.00
2022-09-24T02:43:47.805Z,100673.00
2022-09-24T02:49:50.054Z,100682.00
2022-09-24T02:55:52.494Z,100678.00
2022-09-24T03:01:54.964Z,100676.00
2022-09-24T03:07:59.392Z,100685.00
2022-09-24T03:14:02.528Z,100685.00
2022-09-24T03:20:05.384Z,100700.00
2022-09-24T03:26:07.918Z,100705.00
2022-09-24T03:32:10.231Z,100705.00
2022-09-24T03:38:12.365Z,100719.00
2022-09-24T03:44:14.665Z,100720.00
2022-09-24T03:50:17.574Z,100721.00
2022-09-24T03:56:19.723Z,100726.00
2022-09-24T04:02:22.145Z,100733.00
2022-09-24T04:08:24.627Z,100746.00
2022-09-24T04:14:26.786Z,100752.00
2022-09-24T04:20:29.969Z,100752.00
2022-09-24T04:26:32.198Z,100761.00
2022-09-24T04:32:34.438Z,100758.00
2022-09-24T04:38:36.852Z,100759.00
2022-09-24T04:44:39.233Z,100764.00
2022-09-24T04:50:45.771Z,100735.00
2022-09-24T04:56:49.251Z,100661.00
2022-09-24T05:02:59.498Z,100665.00
2022-09-24T05:09:01.921Z,100662.00
2022-09-24T05:15:04.782Z,100665.00
2022-09-24T05:21:07.283Z,100657.00
2022-09-24T05:27:10.222Z,100655.00
2022-09-24T05:33:12.327Z,100644.00
2022-09-24T05:39:14.444Z,100658.00
2022-09-24T05:45:20.003Z,100651.00
2022-09-24T05:51:22.524Z,100661.00
2022-09-24T05:57:24.727Z,100654.00
2022-09-24T06:03:27.275Z,100658.00
2022-09-24T06:09:29.801Z,100673.00
2022-09-24T06:15:32.538Z,100674.00
2022-09-24T06:21:34.924Z,100685.00
2022-09-24T06:27:37.344Z,100694.00
2022-09-24T06:33:40.824Z,100698.00
2022-09-24T06:39:43.252Z,100704.00
2022-09-24T06:45:45.924Z,100709.00
2022-09-24T06:51:48.407Z,100727.00
2022-09-24T06:57:50.536Z,100739.00
2022-09-24T07:03:52.717Z,100737.00
2022-09-24T07:09:54.974Z,100741.00
2022-09-24T07:15:57.167Z,100764.00
2022-09-24T07:21:59.699Z,100765.00
2022-09-24T07:28:10.781Z,100759.00
2022-09-24T07:34:14.435Z,100757.00
2022-09-24T07:40:16.750Z,100767.00
2022-09-24T07:46:20.366Z,100762.00
2022-09-24T07:52:22.848Z,100754.00
2022-09-24T07:58:25.274Z,100761.00
2022-09-24T08:04:27.350Z,100761.00
2022-09-24T08:10:29.768Z,100765.00
2022-09-24T08:16:31.996Z,100762.00
2022-09-24T08:22:34.732Z,100765.00
2022-09-24T08:28:37.004Z,100763.00
2022-09-24T08:34:40.972Z,100762.00
2022-09-24T08:40:55.059Z,100768.00
2022-09-24T08:47:19.321Z,100781.00
2022-09-24T08:53:40.580Z,100783.00
2022-09-24T08:59:47.678Z,100779.00
2022-09-24T09:05:59.424Z,100778.00
2022-09-24T09:12:06.292Z,100796.00
2022-09-24T09:18:18.613Z,100889.00
2022-09-24T09:24:35.963Z,100904.00
2022-09-24T09:31:08.574Z,100898.00
2022-09-24T09:37:25.540Z,100852.00
2022-09-24T09:43:28.172Z,100911.00
2022-09-24T09:49:36.630Z,100893.00
2022-09-24T09:55:38.838Z,100885.00
2022-09-24T10:01:42.169Z,100830.00
2022-09-24T10:07:45.907Z,100862.00
2022-09-24T10:14:01.504Z,100805.00
2022-09-24T10:20:19.590Z,100749.00
2022-09-24T10:26:21.952Z,100813.00
2022-09-24T10:32:26.804Z,100866.00
2022-09-24T10:38:29.875Z,100718.00
2022-09-24T10:44:37.781Z,100791.00
2022-09-24T10:50:59.143Z,100723.00
2022-09-24T10:57:13.774Z,100727.00
2022-09-24T11:03:45.809Z,100705.00
2022-09-24T11:09:48.175Z,100703.00
2022-09-24T11:16:12.349Z,100759.00
2022-09-24T11:22:18.391Z,100753.00
2022-09-24T11:28:41.467Z,100700.00
2022-09-24T11:34:59.525Z,100683.00
2022-09-24T11:41:21.830Z,100692.00
2022-09-24T11:47:54.536Z,100677.00
2022-09-24T11:54:19.776Z,100678.00
2022-09-24T12:00:22.399Z,100744.00
2022-09-24T12:06:38.165Z,100837.00
2022-09-24T12:12:43.147Z,100719.00
2022-09-24T12:18:55.842Z,100819.00
2022-09-24T12:25:00.474Z,100820.00
2022-09-24T12:31:30.531Z,100817.00
2022-09-24T12:37:39.000Z,100819.00
2022-09-24T12:43:47.458Z,100806.00
2022-09-24T12:49:54.284Z,100806.00
2022-09-24T12:56:00.749Z,100805.00
2022-09-24T13:02:31.666Z,100793.00
2022-09-24T13:08:41.721Z,100794.00
2022-09-24T13:15:08.675Z,100786.00
2022-09-24T13:21:24.778Z,100783.00
2022-09-24T13:27:32.719Z,100785.00
2022-09-24T13:33:44.065Z,100761.00
2022-09-24T13:39:56.697Z,100765.00
2022-09-24T13:45:59.827Z,100773.00
2022-09-24T13:52:26.855Z,100761.00
2022-09-24T13:58:36.211Z,100774.00
2022-09-24T14:04:42.775Z,100789.00
2022-09-24T14:10:48.739Z,100783.00
2022-09-24T14:16:51.585Z,100787.00
2022-09-24T14:22:54.162Z,100784.00
2022-09-24T14:28:58.313Z,100782.00
2022-09-24T14:35:05.882Z,100773.00
2022-09-24T14:41:18.794Z,100773.00
2022-09-24T14:47:24.478Z,100772.00
2022-09-24T14:53:37.786Z,100771.00
2022-09-24T14:59:41.977Z,100775.00
2022-09-24T15:05:46.476Z,100768.00
2022-09-24T15:11:48.944Z,100774.00
2022-09-24T15:17:51.072Z,100773.00
2022-09-24T15:23:53.327Z,100776.00
2022-09-24T15:29:59.847Z,100766.00
2022-09-24T15:36:02.231Z,100764.00
2022-09-24T15:42:05.070Z,100774.00
2022-09-24T15:48:07.553Z,100774.00
2022-09-24T15:54:09.994Z,100783.00
2022-09-24T16:00:16.886Z,100778.00
2022-09-24T16:06:19.407Z,100779.00
2022-09-24T16:12:25.165Z,100786.00
2022-09-24T16:18:27.527Z,100778.00
2022-09-24T16:24:33.575Z,100785.00
2022-09-24T16:30:38.580Z,100777.00
2022-09-24T16:36:41.313Z,100781.00
2022-09-24T16:42:43.440Z,100786.00
2022-09-24T16:48:49.851Z,100781.00
2022-09-24T16:54:51.995Z,100797.00
2022-09-24T17:00:54.255Z,100808.00
2022-09-24T17:06:57.523Z,100798.00
2022-09-24T17:12:59.607Z,100807.00
2022-09-24T17:19:02.190Z,100814.00
2022-09-24T17:25:05.969Z,100829.00
2022-09-24T17:31:09.322Z,100833.00
2022-09-24T17:37:11.728Z,100829.00
2022-09-24T17:43:13.750Z,100843.00
2022-09-24T17:49:15.994Z,100836.00
2022-09-24T17:55:18.128Z,100829.00
2022-09-24T18:01:23.348Z,100832.00
2022-09-24T18:07:25.540Z,100818.00
2022-09-24T18:13:27.533Z,100833.00
2022-09-24T18:19:29.813Z,100830.00
2022-09-24T18:25:32.504Z,100828.00
2022-09-24T18:31:35.107Z,100819.00
2022-09-24T18:37:37.861Z,100824.00
2022-09-24T18:43:40.169Z,100833.00
2022-09-24T18:49:42.550Z,100844.00
2022-09-24T18:55:44.827Z,100830.00
2022-09-24T19:01:48.144Z,100829.00
2022-09-24T19:07:50.359Z,100831.00
2022-09-24T19:13:54.209Z,100847.00
2022-09-24T19:19:56.546Z,100844.00
2022-09-24T19:26:05.491Z,100839.00
2022-09-24T19:32:07.995Z,100836.00
2022-09-24T19:38:10.042Z,100822.00
2022-09-24T19:44:12.656Z,100828.00
2022-09-24T19:50:17.585Z,100838.00
2022-09-24T19:56:22.642Z,100849.00
2022-09-24T20:02:24.680Z,100857.00
2022-09-24T20:08:26.810Z,100855.00
2022-09-24T20:14:32.869Z,100849.00
2022-09-24T20:20:35.899Z,100870.00
2022-09-24T20:26:56.785Z,100863.00
2022-09-24T20:32:59.441Z,100861.00
2022-09-24T20:39:01.590Z,100872.00
2022-09-24T20:45:06.230Z,100877.00
2022-09-24T20:51:16.242Z,100873.00
2022-09-24T20:57:18.271Z,100873.00
2022-09-24T21:03:42.783Z,100880.00
2022-09-24T21:09:45.767Z,100862.00
2022-09-24T21:16:02.059Z,100863.00
2022-09-24T21:22:04.252Z,100868.00
2022-09-24T21:28:06.455Z,100865.00
2022-09-24T21:34:08.762Z,100867.00
2022-09-24T21:40:11.206Z,100865.00
2022-09-24T21:46:14.098Z,100862.00
2022-09-24T21:52:16.400Z,100860.00
2022-09-24T21:58:18.550Z,100857.00
2022-09-24T22:04:20.950Z,100843.00
2022-09-24T22:10:24.158Z,100836.00
2022-09-24T22:16:27.098Z,100839.00
2022-09-24T22:22:29.227Z,100844.00
2022-09-24T22:28:31.849Z,100851.00
2022-09-24T22:34:52.738Z,100849.00
2022-09-24T22:40:55.143Z,100837.00
2022-09-24T22:46:57.498Z,100858.00
2022-09-24T22:53:00.118Z,100847.00
2022-09-24T22:59:02.563Z,100861.00
2022-09-24T23:05:05.644Z,100858.00
2022-09-24T23:11:19.443Z,100847.00
2022-09-24T23:17:21.681Z,100848.00
2022-09-24T23:23:24.058Z,100845.00
2022-09-24T23:29:26.487Z,100851.00
2022-09-24T23:35:29.015Z,100858.00
2022-09-24T23:41:32.091Z,100872.00
2022-09-24T23:47:36.265Z,100867.00
2022-09-24T23:53:39.222Z,100855.00
2022-09-24T23:59:41.442Z,100850.00
